sensor_id;sensor_type;location;lat;lon;timestamp;P1;durP1;ratioP1;P2;durP2;ratioP2
50495;SDS011;38806;51.554;5.704;2023-04-01T00:00:26;7.38;;;2.22;;
50495;SDS011;38806;51.554;5.704;2023-04-01T00:02:26;9.13;;;2.20;;
50495;SDS011;38806;51.554;5.704;2023-04-01T00:04:26;8.02;;;2.30;;
50495;SDS011;38806;51.554;5.704;2023-04-01T00:06:27;5.53;;;2.22;;
50495;SDS011;38806;51.554;5.704;2023-04-01T00:08:27;8.75;;;3.28;;
50495;SDS011;38806;51.554;5.704;2023-04-01T00:10:28;5.20;;;2.25;;
50495;SDS011;38806;51.554;5.704;2023-04-01T00:12:28;6.45;;;2.75;;
50495;SDS011;38806;51.554;5.704;2023-04-01T00:14:29;5.03;;;1.60;;
50495;SDS011;38806;51.554;5.704;2023-04-01T00:16:29;7.80;;;1.92;;
50495;SDS011;38806;51.554;5.704;2023-04-01T00:18:30;8.85;;;2.83;;
50495;SDS011;38806;51.554;5.704;2023-04-01T00:20:30;10.10;;;2.80;;
50495;SDS011;38806;51.554;5.704;2023-04-01T00:22:30;5.75;;;2.65;;
50495;SDS011;38806;51.554;5.704;2023-04-01T00:24:31;6.60;;;2.10;;
50495;SDS011;38806;51.554;5.704;2023-04-01T00:26:31;6.00;;;1.77;;
50495;SDS011;38806;51.554;5.704;2023-04-01T00:28:31;4.25;;;1.65;;
50495;SDS011;38806;51.554;5.704;2023-04-01T00:30:33;6.47;;;2.40;;
50495;SDS011;38806;51.554;5.704;2023-04-01T00:32:35;7.88;;;2.17;;
50495;SDS011;38806;51.554;5.704;2023-04-01T00:34:37;12.05;;;3.97;;
50495;SDS011;38806;51.554;5.704;2023-04-01T00:36:37;10.70;;;2.45;;
50495;SDS011;38806;51.554;5.704;2023-04-01T00:38:38;6.28;;;2.45;;
50495;SDS011;38806;51.554;5.704;2023-04-01T00:40:41;8.25;;;2.95;;
50495;SDS011;38806;51.554;5.704;2023-04-01T00:42:41;12.60;;;3.03;;
50495;SDS011;38806;51.554;5.704;2023-04-01T00:44:41;6.07;;;2.70;;
50495;SDS011;38806;51.554;5.704;2023-04-01T00:46:41;5.72;;;2.25;;
50495;SDS011;38806;51.554;5.704;2023-04-01T00:48:44;7.15;;;1.80;;
50495;SDS011;38806;51.554;5.704;2023-04-01T00:50:46;7.65;;;2.17;;
50495;SDS011;38806;51.554;5.704;2023-04-01T00:52:47;5.68;;;2.30;;
50495;SDS011;38806;51.554;5.704;2023-04-01T00:54:47;5.40;;;2.67;;
50495;SDS011;38806;51.554;5.704;2023-04-01T00:59:02;9.15;;;1.95;;
50495;SDS011;38806;51.554;5.704;2023-04-01T01:01:04;8.32;;;2.03;;
50495;SDS011;38806;51.554;5.704;2023-04-01T01:03:05;4.47;;;1.77;;
50495;SDS011;38806;51.554;5.704;2023-04-01T01:05:07;10.15;;;2.55;;
50495;SDS011;38806;51.554;5.704;2023-04-01T01:09:25;5.45;;;2.72;;
50495;SDS011;38806;51.554;5.704;2023-04-01T01:11:29;5.47;;;1.88;;
50495;SDS011;38806;51.554;5.704;2023-04-01T01:13:38;5.32;;;2.83;;
50495;SDS011;38806;51.554;5.704;2023-04-01T01:15:47;9.90;;;2.65;;
50495;SDS011;38806;51.554;5.704;2023-04-01T01:20:04;8.38;;;3.88;;
50495;SDS011;38806;51.554;5.704;2023-04-01T01:24:29;4.43;;;1.95;;
50495;SDS011;38806;51.554;5.704;2023-04-01T01:35:09;6.20;;;2.23;;
50495;SDS011;38806;51.554;5.704;2023-04-01T01:37:12;5.85;;;3.28;;
50495;SDS011;38806;51.554;5.704;2023-04-01T01:39:13;7.05;;;2.55;;
50495;SDS011;38806;51.554;5.704;2023-04-01T01:41:13;4.85;;;2.28;;
50495;SDS011;38806;51.554;5.704;2023-04-01T01:43:17;5.20;;;2.13;;
50495;SDS011;38806;51.554;5.704;2023-04-01T01:45:19;8.40;;;2.58;;
50495;SDS011;38806;51.554;5.704;2023-04-01T01:47:21;5.03;;;2.05;;
50495;SDS011;38806;51.554;5.704;2023-04-01T01:49:22;4.80;;;1.92;;
50495;SDS011;38806;51.554;5.704;2023-04-01T01:51:22;5.60;;;2.78;;
50495;SDS011;38806;51.554;5.704;2023-04-01T01:53:23;7.00;;;2.22;;
50495;SDS011;38806;51.554;5.704;2023-04-01T01:55:34;5.57;;;2.10;;
50495;SDS011;38806;51.554;5.704;2023-04-01T01:57:36;5.80;;;2.70;;
50495;SDS011;38806;51.554;5.704;2023-04-01T01:59:37;5.35;;;2.50;;
50495;SDS011;38806;51.554;5.704;2023-04-01T02:01:39;9.15;;;3.22;;
50495;SDS011;38806;51.554;5.704;2023-04-01T02:03:42;7.20;;;2.90;;
50495;SDS011;38806;51.554;5.704;2023-04-01T02:05:42;8.88;;;2.95;;
50495;SDS011;38806;51.554;5.704;2023-04-01T02:07:44;6.68;;;2.60;;
50495;SDS011;38806;51.554;5.704;2023-04-01T02:09:47;8.15;;;3.80;;
50495;SDS011;38806;51.554;5.704;2023-04-01T02:11:52;7.43;;;4.13;;
50495;SDS011;38806;51.554;5.704;2023-04-01T02:15:53;6.90;;;3.42;;
50495;SDS011;38806;51.554;5.704;2023-04-01T02:17:55;9.10;;;4.18;;
50495;SDS011;38806;51.554;5.704;2023-04-01T02:20:00;8.93;;;5.28;;
50495;SDS011;38806;51.554;5.704;2023-04-01T02:22:02;9.98;;;5.55;;
50495;SDS011;38806;51.554;5.704;2023-04-01T02:24:05;10.15;;;6.13;;
50495;SDS011;38806;51.554;5.704;2023-04-01T02:26:07;13.32;;;5.78;;
50495;SDS011;38806;51.554;5.704;2023-04-01T02:28:08;11.60;;;6.15;;
50495;SDS011;38806;51.554;5.704;2023-04-01T02:30:09;10.70;;;5.88;;
50495;SDS011;38806;51.554;5.704;2023-04-01T02:32:09;13.45;;;6.28;;
50495;SDS011;38806;51.554;5.704;2023-04-01T02:34:09;11.75;;;7.03;;
50495;SDS011;38806;51.554;5.704;2023-04-01T02:36:10;11.07;;;6.40;;
50495;SDS011;38806;51.554;5.704;2023-04-01T02:38:12;10.52;;;6.85;;
50495;SDS011;38806;51.554;5.704;2023-04-01T02:40:16;11.57;;;6.40;;
50495;SDS011;38806;51.554;5.704;2023-04-01T02:42:16;11.15;;;6.70;;
50495;SDS011;38806;51.554;5.704;2023-04-01T02:44:16;11.95;;;6.80;;
50495;SDS011;38806;51.554;5.704;2023-04-01T02:46:17;14.65;;;7.78;;
50495;SDS011;38806;51.554;5.704;2023-04-01T02:48:17;13.00;;;7.38;;
50495;SDS011;38806;51.554;5.704;2023-04-01T02:50:17;14.70;;;7.68;;
50495;SDS011;38806;51.554;5.704;2023-04-01T02:52:17;14.95;;;8.43;;
50495;SDS011;38806;51.554;5.704;2023-04-01T02:54:18;15.25;;;7.57;;
50495;SDS011;38806;51.554;5.704;2023-04-01T02:56:18;16.10;;;9.43;;
50495;SDS011;38806;51.554;5.704;2023-04-01T02:58:19;17.73;;;8.18;;
50495;SDS011;38806;51.554;5.704;2023-04-01T03:00:20;15.30;;;8.48;;
50495;SDS011;38806;51.554;5.704;2023-04-01T03:02:20;17.33;;;9.10;;
50495;SDS011;38806;51.554;5.704;2023-04-01T03:04:20;17.08;;;9.07;;
50495;SDS011;38806;51.554;5.704;2023-04-01T03:06:20;18.00;;;10.02;;
50495;SDS011;38806;51.554;5.704;2023-04-01T03:08:20;16.90;;;8.85;;
50495;SDS011;38806;51.554;5.704;2023-04-01T03:10:21;21.48;;;11.68;;
50495;SDS011;38806;51.554;5.704;2023-04-01T03:12:21;19.25;;;10.60;;
50495;SDS011;38806;51.554;5.704;2023-04-01T03:14:21;21.92;;;10.60;;
50495;SDS011;38806;51.554;5.704;2023-04-01T03:16:21;21.33;;;10.82;;
50495;SDS011;38806;51.554;5.704;2023-04-01T03:18:22;25.02;;;11.80;;
50495;SDS011;38806;51.554;5.704;2023-04-01T03:20:22;23.85;;;12.20;;
50495;SDS011;38806;51.554;5.704;2023-04-01T03:22:22;22.05;;;11.65;;
50495;SDS011;38806;51.554;5.704;2023-04-01T03:24:22;21.63;;;10.63;;
50495;SDS011;38806;51.554;5.704;2023-04-01T03:26:22;19.75;;;10.30;;
50495;SDS011;38806;51.554;5.704;2023-04-01T03:28:23;21.33;;;11.90;;
50495;SDS011;38806;51.554;5.704;2023-04-01T03:30:23;20.90;;;11.57;;
50495;SDS011;38806;51.554;5.704;2023-04-01T03:32:23;21.33;;;10.05;;
50495;SDS011;38806;51.554;5.704;2023-04-01T03:34:23;20.70;;;10.75;;
50495;SDS011;38806;51.554;5.704;2023-04-01T03:36:24;17.80;;;10.77;;
50495;SDS011;38806;51.554;5.704;2023-04-01T03:38:24;19.42;;;9.63;;
50495;SDS011;38806;51.554;5.704;2023-04-01T03:40:25;20.75;;;9.98;;
50495;SDS011;38806;51.554;5.704;2023-04-01T03:42:26;15.57;;;8.00;;
50495;SDS011;38806;51.554;5.704;2023-04-01T03:44:30;22.50;;;10.13;;
50495;SDS011;38806;51.554;5.704;2023-04-01T03:46:30;17.88;;;8.95;;
50495;SDS011;38806;51.554;5.704;2023-04-01T03:48:30;18.50;;;9.40;;
50495;SDS011;38806;51.554;5.704;2023-04-01T03:50:30;20.15;;;9.65;;
50495;SDS011;38806;51.554;5.704;2023-04-01T03:52:30;18.35;;;9.73;;
50495;SDS011;38806;51.554;5.704;2023-04-01T03:54:31;17.35;;;9.32;;
50495;SDS011;38806;51.554;5.704;2023-04-01T03:56:32;18.10;;;8.55;;
50495;SDS011;38806;51.554;5.704;2023-04-01T03:58:32;15.50;;;8.60;;
50495;SDS011;38806;51.554;5.704;2023-04-01T04:00:32;19.98;;;9.00;;
50495;SDS011;38806;51.554;5.704;2023-04-01T04:02:32;16.08;;;9.07;;
50495;SDS011;38806;51.554;5.704;2023-04-01T04:04:33;15.93;;;8.68;;
50495;SDS011;38806;51.554;5.704;2023-04-01T04:06:33;13.82;;;8.55;;
50495;SDS011;38806;51.554;5.704;2023-04-01T04:08:33;14.18;;;7.45;;
50495;SDS011;38806;51.554;5.704;2023-04-01T04:10:33;17.52;;;8.95;;
50495;SDS011;38806;51.554;5.704;2023-04-01T04:12:35;17.90;;;7.95;;
50495;SDS011;38806;51.554;5.704;2023-04-01T04:14:35;17.35;;;8.55;;
50495;SDS011;38806;51.554;5.704;2023-04-01T04:16:36;19.02;;;10.50;;
50495;SDS011;38806;51.554;5.704;2023-04-01T04:18:36;15.88;;;8.70;;
50495;SDS011;38806;51.554;5.704;2023-04-01T04:20:36;13.57;;;7.25;;
50495;SDS011;38806;51.554;5.704;2023-04-01T04:22:37;15.50;;;7.95;;
50495;SDS011;38806;51.554;5.704;2023-04-01T04:24:37;13.52;;;7.82;;
50495;SDS011;38806;51.554;5.704;2023-04-01T04:26:37;14.02;;;7.18;;
50495;SDS011;38806;51.554;5.704;2023-04-01T04:28:37;16.67;;;8.80;;
50495;SDS011;38806;51.554;5.704;2023-04-01T04:30:38;16.70;;;8.02;;
50495;SDS011;38806;51.554;5.704;2023-04-01T04:32:38;14.93;;;7.85;;
50495;SDS011;38806;51.554;5.704;2023-04-01T04:34:38;15.30;;;6.85;;
50495;SDS011;38806;51.554;5.704;2023-04-01T04:36:38;14.23;;;7.93;;
50495;SDS011;38806;51.554;5.704;2023-04-01T04:38:38;16.15;;;8.13;;
50495;SDS011;38806;51.554;5.704;2023-04-01T04:40:39;13.35;;;7.07;;
50495;SDS011;38806;51.554;5.704;2023-04-01T04:42:40;17.08;;;7.72;;
50495;SDS011;38806;51.554;5.704;2023-04-01T04:44:40;12.38;;;6.78;;
50495;SDS011;38806;51.554;5.704;2023-04-01T04:46:40;11.55;;;6.75;;
50495;SDS011;38806;51.554;5.704;2023-04-01T04:48:41;12.85;;;6.72;;
50495;SDS011;38806;51.554;5.704;2023-04-01T04:50:41;14.18;;;7.70;;
50495;SDS011;38806;51.554;5.704;2023-04-01T04:52:41;14.45;;;6.57;;
50495;SDS011;38806;51.554;5.704;2023-04-01T04:54:42;13.25;;;7.00;;
50495;SDS011;38806;51.554;5.704;2023-04-01T04:56:42;10.38;;;5.15;;
50495;SDS011;38806;51.554;5.704;2023-04-01T04:58:42;13.95;;;6.78;;
50495;SDS011;38806;51.554;5.704;2023-04-01T05:00:42;10.57;;;6.25;;
50495;SDS011;38806;51.554;5.704;2023-04-01T05:02:42;12.85;;;7.05;;
50495;SDS011;38806;51.554;5.704;2023-04-01T05:04:43;12.27;;;6.40;;
50495;SDS011;38806;51.554;5.704;2023-04-01T05:06:43;11.38;;;5.15;;
50495;SDS011;38806;51.554;5.704;2023-04-01T05:08:45;10.35;;;5.20;;
50495;SDS011;38806;51.554;5.704;2023-04-01T05:10:45;12.13;;;5.63;;
50495;SDS011;38806;51.554;5.704;2023-04-01T05:12:45;10.50;;;5.28;;
50495;SDS011;38806;51.554;5.704;2023-04-01T05:14:45;9.50;;;4.82;;
50495;SDS011;38806;51.554;5.704;2023-04-01T05:16:45;8.80;;;4.28;;
50495;SDS011;38806;51.554;5.704;2023-04-01T05:18:46;8.43;;;4.60;;
50495;SDS011;38806;51.554;5.704;2023-04-01T05:20:47;8.05;;;4.18;;
50495;SDS011;38806;51.554;5.704;2023-04-01T05:22:47;10.23;;;5.00;;
50495;SDS011;38806;51.554;5.704;2023-04-01T05:24:48;11.30;;;5.45;;
50495;SDS011;38806;51.554;5.704;2023-04-01T05:26:48;10.85;;;4.82;;
50495;SDS011;38806;51.554;5.704;2023-04-01T05:28:49;9.45;;;3.45;;
50495;SDS011;38806;51.554;5.704;2023-04-01T05:30:49;11.60;;;5.50;;
50495;SDS011;38806;51.554;5.704;2023-04-01T05:32:49;11.20;;;5.95;;
50495;SDS011;38806;51.554;5.704;2023-04-01T05:34:53;11.07;;;5.03;;
50495;SDS011;38806;51.554;5.704;2023-04-01T05:36:53;12.18;;;5.97;;
50495;SDS011;38806;51.554;5.704;2023-04-01T05:38:56;8.73;;;4.47;;
50495;SDS011;38806;51.554;5.704;2023-04-01T05:41:00;11.95;;;6.78;;
50495;SDS011;38806;51.554;5.704;2023-04-01T05:43:00;12.52;;;5.75;;
50495;SDS011;38806;51.554;5.704;2023-04-01T05:45:00;12.43;;;7.22;;
50495;SDS011;38806;51.554;5.704;2023-04-01T05:47:01;14.02;;;6.30;;
50495;SDS011;38806;51.554;5.704;2023-04-01T05:49:01;10.75;;;5.05;;
50495;SDS011;38806;51.554;5.704;2023-04-01T05:51:02;12.00;;;5.20;;
50495;SDS011;38806;51.554;5.704;2023-04-01T05:53:02;12.98;;;6.18;;
50495;SDS011;38806;51.554;5.704;2023-04-01T05:55:02;12.15;;;4.93;;
50495;SDS011;38806;51.554;5.704;2023-04-01T05:57:03;12.75;;;7.22;;
50495;SDS011;38806;51.554;5.704;2023-04-01T05:59:03;13.57;;;6.95;;
50495;SDS011;38806;51.554;5.704;2023-04-01T06:01:04;12.55;;;6.30;;
50495;SDS011;38806;51.554;5.704;2023-04-01T06:03:04;10.77;;;5.60;;
50495;SDS011;38806;51.554;5.704;2023-04-01T06:05:18;14.65;;;6.68;;
50495;SDS011;38806;51.554;5.704;2023-04-01T06:07:19;11.68;;;6.72;;
50495;SDS011;38806;51.554;5.704;2023-04-01T06:09:26;11.23;;;5.38;;
50495;SDS011;38806;51.554;5.704;2023-04-01T06:15:47;12.18;;;6.15;;
50495;SDS011;38806;51.554;5.704;2023-04-01T06:18:03;13.55;;;7.00;;
50495;SDS011;38806;51.554;5.704;2023-04-01T06:20:25;16.73;;;7.65;;
50495;SDS011;38806;51.554;5.704;2023-04-01T06:26:35;19.55;;;11.30;;
50495;SDS011;38806;51.554;5.704;2023-04-01T06:30:44;28.33;;;13.25;;
50495;SDS011;38806;51.554;5.704;2023-04-01T06:41:21;23.77;;;11.70;;
50495;SDS011;38806;51.554;5.704;2023-04-01T06:43:26;25.25;;;13.38;;
50495;SDS011;38806;51.554;5.704;2023-04-01T06:45:37;22.75;;;11.55;;
50495;SDS011;38806;51.554;5.704;2023-04-01T06:54:01;20.05;;;10.75;;
50495;SDS011;38806;51.554;5.704;2023-04-01T06:56:07;19.02;;;9.77;;
50495;SDS011;38806;51.554;5.704;2023-04-01T07:04:48;22.23;;;11.02;;
50495;SDS011;38806;51.554;5.704;2023-04-01T07:07:06;17.77;;;11.15;;
50495;SDS011;38806;51.554;5.704;2023-04-01T07:09:10;21.55;;;9.93;;
50495;SDS011;38806;51.554;5.704;2023-04-01T07:11:17;19.25;;;10.93;;
50495;SDS011;38806;51.554;5.704;2023-04-01T07:13:24;19.48;;;10.85;;
50495;SDS011;38806;51.554;5.704;2023-04-01T07:15:26;22.27;;;11.23;;
50495;SDS011;38806;51.554;5.704;2023-04-01T07:17:29;22.95;;;12.45;;
50495;SDS011;38806;51.554;5.704;2023-04-01T07:19:32;22.17;;;12.35;;
50495;SDS011;38806;51.554;5.704;2023-04-01T07:21:41;25.15;;;12.85;;
50495;SDS011;38806;51.554;5.704;2023-04-01T07:23:44;25.00;;;13.63;;
50495;SDS011;38806;51.554;5.704;2023-04-01T07:25:46;25.90;;;13.88;;
50495;SDS011;38806;51.554;5.704;2023-04-01T07:27:47;27.63;;;15.85;;
50495;SDS011;38806;51.554;5.704;2023-04-01T07:29:47;27.08;;;15.65;;
50495;SDS011;38806;51.554;5.704;2023-04-01T07:52:50;39.72;;;20.23;;
50495;SDS011;38806;51.554;5.704;2023-04-01T07:54:56;37.90;;;17.20;;
50495;SDS011;38806;51.554;5.704;2023-04-01T07:57:00;30.85;;;15.68;;
50495;SDS011;38806;51.554;5.704;2023-04-01T08:01:27;25.95;;;15.00;;
50495;SDS011;38806;51.554;5.704;2023-04-01T08:03:31;24.48;;;12.98;;
50495;SDS011;38806;51.554;5.704;2023-04-01T08:07:47;23.80;;;13.18;;
50495;SDS011;38806;51.554;5.704;2023-04-01T08:22:50;23.95;;;13.48;;
50495;SDS011;38806;51.554;5.704;2023-04-01T08:24:51;22.85;;;13.95;;
50495;SDS011;38806;51.554;5.704;2023-04-01T08:26:53;27.58;;;14.02;;
50495;SDS011;38806;51.554;5.704;2023-04-01T08:29:06;30.00;;;16.23;;
50495;SDS011;38806;51.554;5.704;2023-04-01T08:31:12;26.92;;;17.52;;
50495;SDS011;38806;51.554;5.704;2023-04-01T08:33:15;30.17;;;17.98;;
50495;SDS011;38806;51.554;5.704;2023-04-01T08:37:51;30.63;;;16.30;;
50495;SDS011;38806;51.554;5.704;2023-04-01T08:39:54;32.30;;;17.40;;
50495;SDS011;38806;51.554;5.704;2023-04-01T08:46:19;29.08;;;17.98;;
50495;SDS011;38806;51.554;5.704;2023-04-01T08:50:53;31.40;;;20.30;;
50495;SDS011;38806;51.554;5.704;2023-04-01T08:53:00;30.65;;;17.80;;
50495;SDS011;38806;51.554;5.704;2023-04-01T09:01:58;32.75;;;15.73;;
50495;SDS011;38806;51.554;5.704;2023-04-01T09:06:12;35.80;;;16.23;;
50495;SDS011;38806;51.554;5.704;2023-04-01T09:10:29;27.63;;;17.42;;
50495;SDS011;38806;51.554;5.704;2023-04-01T09:17:08;29.95;;;16.80;;
50495;SDS011;38806;51.554;5.704;2023-04-01T09:21:37;25.45;;;16.48;;
50495;SDS011;38806;51.554;5.704;2023-04-01T09:25:53;29.13;;;17.65;;
50495;SDS011;38806;51.554;5.704;2023-04-01T09:27:57;28.58;;;16.40;;
50495;SDS011;38806;51.554;5.704;2023-04-01T09:30:38;29.33;;;18.40;;
50495;SDS011;38806;51.554;5.704;2023-04-01T09:34:34;27.08;;;16.15;;
50495;SDS011;38806;51.554;5.704;2023-04-01T09:38:54;28.38;;;15.70;;
50495;SDS011;38806;51.554;5.704;2023-04-01T09:40:56;26.60;;;15.68;;
50495;SDS011;38806;51.554;5.704;2023-04-01T09:45:05;30.00;;;17.67;;
50495;SDS011;38806;51.554;5.704;2023-04-01T09:49:54;23.42;;;14.82;;
50495;SDS011;38806;51.554;5.704;2023-04-01T09:56:33;30.02;;;16.08;;
50495;SDS011;38806;51.554;5.704;2023-04-01T09:59:41;26.45;;;14.05;;
50495;SDS011;38806;51.554;5.704;2023-04-01T10:01:25;25.67;;;16.08;;
50495;SDS011;38806;51.554;5.704;2023-04-01T10:25:13;22.77;;;13.73;;
50495;SDS011;38806;51.554;5.704;2023-04-01T10:33:56;18.85;;;13.23;;
50495;SDS011;38806;51.554;5.704;2023-04-01T10:43:01;19.55;;;12.93;;
50495;SDS011;38806;51.554;5.704;2023-04-01T10:45:10;22.92;;;15.15;;
50495;SDS011;38806;51.554;5.704;2023-04-01T10:54:09;17.23;;;12.93;;
50495;SDS011;38806;51.554;5.704;2023-04-01T10:58:25;22.77;;;14.33;;
50495;SDS011;38806;51.554;5.704;2023-04-01T11:00:41;22.50;;;15.73;;
50495;SDS011;38806;51.554;5.704;2023-04-01T11:28:58;22.77;;;16.30;;
50495;SDS011;38806;51.554;5.704;2023-04-01T11:35:42;22.65;;;14.63;;
50495;SDS011;38806;51.554;5.704;2023-04-01T11:44:13;24.90;;;16.63;;
50495;SDS011;38806;51.554;5.704;2023-04-01T11:46:16;31.08;;;19.35;;
50495;SDS011;38806;51.554;5.704;2023-04-01T11:48:20;31.98;;;19.63;;
50495;SDS011;38806;51.554;5.704;2023-04-01T11:52:51;28.83;;;18.73;;
50495;SDS011;38806;51.554;5.704;2023-04-01T12:12:36;26.55;;;17.92;;
50495;SDS011;38806;51.554;5.704;2023-04-01T12:19:17;26.92;;;17.77;;
50495;SDS011;38806;51.554;5.704;2023-04-01T12:21:34;27.00;;;18.90;;
50495;SDS011;38806;51.554;5.704;2023-04-01T12:41:03;18.73;;;12.55;;
50495;SDS011;38806;51.554;5.704;2023-04-01T12:47:18;25.33;;;13.68;;
50495;SDS011;38806;51.554;5.704;2023-04-01T12:54:07;17.15;;;11.32;;
50495;SDS011;38806;51.554;5.704;2023-04-01T12:56:17;15.55;;;10.75;;
50495;SDS011;38806;51.554;5.704;2023-04-01T13:00:58;21.85;;;13.07;;
50495;SDS011;38806;51.554;5.704;2023-04-01T13:09:55;20.25;;;13.63;;
50495;SDS011;38806;51.554;5.704;2023-04-01T13:11:57;17.52;;;12.35;;
50495;SDS011;38806;51.554;5.704;2023-04-01T13:16:24;23.58;;;13.73;;
50495;SDS011;38806;51.554;5.704;2023-04-01T13:18:32;22.13;;;14.77;;
50495;SDS011;38806;51.554;5.704;2023-04-01T13:20:49;21.17;;;14.32;;
50495;SDS011;38806;51.554;5.704;2023-04-01T13:23:06;23.98;;;15.10;;
50495;SDS011;38806;51.554;5.704;2023-04-01T13:25:22;22.75;;;13.13;;
50495;SDS011;38806;51.554;5.704;2023-04-01T13:27:35;21.15;;;14.85;;
50495;SDS011;38806;51.554;5.704;2023-04-01T13:30:00;21.65;;;14.70;;
50495;SDS011;38806;51.554;5.704;2023-04-01T13:32:01;22.58;;;15.32;;
50495;SDS011;38806;51.554;5.704;2023-04-01T13:52:29;24.02;;;13.93;;
50495;SDS011;38806;51.554;5.704;2023-04-01T13:54:46;18.58;;;13.15;;
50495;SDS011;38806;51.554;5.704;2023-04-01T13:57:00;20.98;;;14.13;;
50495;SDS011;38806;51.554;5.704;2023-04-01T14:07:15;21.55;;;13.73;;
50495;SDS011;38806;51.554;5.704;2023-04-01T14:09:23;20.50;;;15.43;;
50495;SDS011;38806;51.554;5.704;2023-04-01T14:20:07;20.50;;;13.45;;
50495;SDS011;38806;51.554;5.704;2023-04-01T14:34:53;23.88;;;15.30;;
50495;SDS011;38806;51.554;5.704;2023-04-01T14:41:00;21.20;;;14.02;;
50495;SDS011;38806;51.554;5.704;2023-04-01T14:49:41;24.95;;;15.98;;
50495;SDS011;38806;51.554;5.704;2023-04-01T14:51:42;22.70;;;14.25;;
50495;SDS011;38806;51.554;5.704;2023-04-01T14:53:44;23.75;;;15.35;;
50495;SDS011;38806;51.554;5.704;2023-04-01T14:55:52;24.00;;;15.27;;
50495;SDS011;38806;51.554;5.704;2023-04-01T14:58:26;23.95;;;15.38;;
50495;SDS011;38806;51.554;5.704;2023-04-01T15:00:19;26.42;;;14.45;;
50495;SDS011;38806;51.554;5.704;2023-04-01T15:02:33;20.73;;;13.40;;
50495;SDS011;38806;51.554;5.704;2023-04-01T15:22:39;25.08;;;15.63;;
50495;SDS011;38806;51.554;5.704;2023-04-01T15:24:22;27.67;;;17.38;;
50495;SDS011;38806;51.554;5.704;2023-04-01T15:26:42;26.50;;;16.80;;
50495;SDS011;38806;51.554;5.704;2023-04-01T15:31:14;26.55;;;16.95;;
50495;SDS011;38806;51.554;5.704;2023-04-01T15:48:44;29.38;;;18.98;;
50495;SDS011;38806;51.554;5.704;2023-04-01T15:50:52;29.55;;;17.08;;
50495;SDS011;38806;51.554;5.704;2023-04-01T15:53:00;30.92;;;19.20;;
50495;SDS011;38806;51.554;5.704;2023-04-01T16:02:15;26.02;;;15.55;;
50495;SDS011;38806;51.554;5.704;2023-04-01T16:04:28;25.08;;;15.00;;
50495;SDS011;38806;51.554;5.704;2023-04-01T16:06:33;30.27;;;18.95;;
50495;SDS011;38806;51.554;5.704;2023-04-01T16:10:55;28.08;;;17.00;;
50495;SDS011;38806;51.554;5.704;2023-04-01T16:15:24;28.52;;;19.27;;
50495;SDS011;38806;51.554;5.704;2023-04-01T16:21:45;31.00;;;17.92;;
50495;SDS011;38806;51.554;5.704;2023-04-01T16:23:49;32.08;;;19.23;;
50495;SDS011;38806;51.554;5.704;2023-04-01T16:25:58;29.70;;;17.92;;
50495;SDS011;38806;51.554;5.704;2023-04-01T16:28:05;30.63;;;17.58;;
50495;SDS011;38806;51.554;5.704;2023-04-01T16:34:46;26.33;;;16.40;;
50495;SDS011;38806;51.554;5.704;2023-04-01T16:36:49;23.33;;;14.68;;
50495;SDS011;38806;51.554;5.704;2023-04-01T16:43:55;22.30;;;13.20;;
50495;SDS011;38806;51.554;5.704;2023-04-01T16:54:17;25.93;;;16.23;;
50495;SDS011;38806;51.554;5.704;2023-04-01T16:56:24;27.88;;;16.92;;
50495;SDS011;38806;51.554;5.704;2023-04-01T16:58:28;26.45;;;17.20;;
50495;SDS011;38806;51.554;5.704;2023-04-01T17:02:38;36.42;;;18.13;;
50495;SDS011;38806;51.554;5.704;2023-04-01T17:13:54;66.07;;;34.28;;
50495;SDS011;38806;51.554;5.704;2023-04-01T17:18:22;33.42;;;19.45;;
50495;SDS011;38806;51.554;5.704;2023-04-01T17:22:40;37.17;;;21.67;;
50495;SDS011;38806;51.554;5.704;2023-04-01T17:27:11;29.90;;;16.92;;
50495;SDS011;38806;51.554;5.704;2023-04-01T17:29:29;32.72;;;18.38;;
50495;SDS011;38806;51.554;5.704;2023-04-01T17:31:46;36.65;;;18.85;;
50495;SDS011;38806;51.554;5.704;2023-04-01T17:38:34;32.55;;;18.42;;
50495;SDS011;38806;51.554;5.704;2023-04-01T17:51:58;22.83;;;12.75;;
50495;SDS011;38806;51.554;5.704;2023-04-01T17:53:35;26.45;;;11.38;;
50495;SDS011;38806;51.554;5.704;2023-04-01T18:02:22;15.10;;;8.95;;
50495;SDS011;38806;51.554;5.704;2023-04-01T18:06:44;18.77;;;12.38;;
50495;SDS011;38806;51.554;5.704;2023-04-01T18:08:57;16.23;;;11.02;;
50495;SDS011;38806;51.554;5.704;2023-04-01T18:21:31;17.23;;;10.00;;
50495;SDS011;38806;51.554;5.704;2023-04-01T18:23:38;11.23;;;6.53;;
50495;SDS011;38806;51.554;5.704;2023-04-01T18:25:43;8.52;;;5.60;;
50495;SDS011;38806;51.554;5.704;2023-04-01T18:27:50;8.90;;;5.43;;
50495;SDS011;38806;51.554;5.704;2023-04-01T18:29:58;8.75;;;5.82;;
50495;SDS011;38806;51.554;5.704;2023-04-01T18:34:37;8.27;;;4.90;;
50495;SDS011;38806;51.554;5.704;2023-04-01T18:38:49;10.50;;;6.18;;
50495;SDS011;38806;51.554;5.704;2023-04-01T18:40:54;10.18;;;6.07;;
50495;SDS011;38806;51.554;5.704;2023-04-01T18:49:35;14.98;;;7.80;;
50495;SDS011;38806;51.554;5.704;2023-04-01T18:55:59;11.98;;;7.15;;
50495;SDS011;38806;51.554;5.704;2023-04-01T19:00:26;11.50;;;5.90;;
50495;SDS011;38806;51.554;5.704;2023-04-01T19:02:38;12.38;;;7.18;;
50495;SDS011;38806;51.554;5.704;2023-04-01T19:06:46;12.60;;;7.93;;
50495;SDS011;38806;51.554;5.704;2023-04-01T19:08:48;11.07;;;6.82;;
50495;SDS011;38806;51.554;5.704;2023-04-01T19:10:51;14.90;;;8.02;;
50495;SDS011;38806;51.554;5.704;2023-04-01T19:15:31;14.05;;;8.30;;
50495;SDS011;38806;51.554;5.704;2023-04-01T19:17:32;12.68;;;8.32;;
50495;SDS011;38806;51.554;5.704;2023-04-01T19:21:44;16.52;;;9.30;;
50495;SDS011;38806;51.554;5.704;2023-04-01T19:24:09;14.57;;;8.85;;
50495;SDS011;38806;51.554;5.704;2023-04-01T19:26:16;17.45;;;8.50;;
50495;SDS011;38806;51.554;5.704;2023-04-01T19:30:25;18.35;;;10.10;;
50495;SDS011;38806;51.554;5.704;2023-04-01T19:32:42;17.67;;;10.85;;
50495;SDS011;38806;51.554;5.704;2023-04-01T19:36:50;16.17;;;10.10;;
50495;SDS011;38806;51.554;5.704;2023-04-01T19:43:03;19.60;;;11.38;;
50495;SDS011;38806;51.554;5.704;2023-04-01T19:45:53;18.25;;;10.70;;
50495;SDS011;38806;51.554;5.704;2023-04-01T19:49:45;17.10;;;10.38;;
50495;SDS011;38806;51.554;5.704;2023-04-01T19:56:14;17.73;;;11.73;;
50495;SDS011;38806;51.554;5.704;2023-04-01T19:58:18;17.67;;;10.15;;
50495;SDS011;38806;51.554;5.704;2023-04-01T20:02:52;30.77;;;11.13;;
50495;SDS011;38806;51.554;5.704;2023-04-01T20:04:55;20.02;;;11.25;;
50495;SDS011;38806;51.554;5.704;2023-04-01T20:07:10;18.17;;;10.75;;
50495;SDS011;38806;51.554;5.704;2023-04-01T20:09:35;17.83;;;10.95;;
50495;SDS011;38806;51.554;5.704;2023-04-01T20:11:44;16.27;;;10.80;;
50495;SDS011;38806;51.554;5.704;2023-04-01T20:13:49;17.05;;;10.95;;
50495;SDS011;38806;51.554;5.704;2023-04-01T20:16:08;16.88;;;9.75;;
50495;SDS011;38806;51.554;5.704;2023-04-01T20:18:13;16.98;;;10.43;;
50495;SDS011;38806;51.554;5.704;2023-04-01T20:20:18;17.80;;;10.60;;
50495;SDS011;38806;51.554;5.704;2023-04-01T20:24:23;17.02;;;10.25;;
50495;SDS011;38806;51.554;5.704;2023-04-01T20:26:26;14.98;;;9.38;;
50495;SDS011;38806;51.554;5.704;2023-04-01T20:28:30;17.27;;;11.00;;
50495;SDS011;38806;51.554;5.704;2023-04-01T20:36:51;16.85;;;10.43;;
50495;SDS011;38806;51.554;5.704;2023-04-01T20:43:16;23.48;;;13.68;;
50495;SDS011;38806;51.554;5.704;2023-04-01T21:00:27;18.05;;;11.77;;
50495;SDS011;38806;51.554;5.704;2023-04-01T21:07:03;19.50;;;11.93;;